createdAt,value
2022-12-24T00:01:37.321Z,49.20
2022-12-24T00:04:05.990Z,53.10
2022-12-24T00:06:34.187Z,50.70
2022-12-24T00:09:03.044Z,54.90
2022-12-24T00:11:31.375Z,51.40
2022-12-24T00:13:59.656Z,57.10
2022-12-24T00:16:28.458Z,60.10
2022-12-24T00:18:56.661Z,48.10
2022-12-24T00:21:24.864Z,54.40
2022-12-24T00:23:53.030Z,54.20
2022-12-24T00:26:21.233Z,51.50
2022-12-24T00:28:49.361Z,52.30
2022-12-24T00:31:19.192Z,52.50
2022-12-24T00:33:48.389Z,54.30
2022-12-24T00:36:17.383Z,51.10
2022-12-24T00:38:45.994Z,57.40
2022-12-24T00:41:29.405Z,53.50
2022-12-24T00:44:05.917Z,54.80
2022-12-24T00:46:35.154Z,53.80
2022-12-24T00:49:04.875Z,54.20
2022-12-24T00:51:34.299Z,57.70
2022-12-24T00:54:02.383Z,61.00
2022-12-24T00:56:30.476Z,56.30
2022-12-24T00:58:58.541Z,64.90
2022-12-24T01:01:27.593Z,59.80
2022-12-24T01:04:16.568Z,64.90
2022-12-24T01:06:44.806Z,65.10
2022-12-24T01:09:13.440Z,64.90
2022-12-24T01:11:41.991Z,62.50
2022-12-24T01:14:10.037Z,63.50
2022-12-24T01:16:38.440Z,60.30
2022-12-24T01:19:06.691Z,57.10
2022-12-24T01:21:34.907Z,58.60
2022-12-24T01:24:03.305Z,58.60
2022-12-24T01:26:31.540Z,58.40
2022-12-24T01:28:59.956Z,58.80
2022-12-24T01:31:28.135Z,55.00
2022-12-24T01:33:56.220Z,55.50
2022-12-24T01:36:24.315Z,55.40
2022-12-24T01:38:52.487Z,58.20
2022-12-24T01:41:40.964Z,61.20
2022-12-24T01:44:52.384Z,58.00
2022-12-24T01:47:30.347Z,59.40
2022-12-24T01:50:02.112Z,63.80
2022-12-24T01:52:36.180Z,62.00
2022-12-24T01:55:13.149Z,65.50
2022-12-24T01:57:53.449Z,65.00
2022-12-24T02:00:22.497Z,64.10
2022-12-24T02:02:54.272Z,62.10
2022-12-24T02:05:39.940Z,59.30
2022-12-24T02:08:08.484Z,58.10
2022-12-24T02:10:36.841Z,56.20
2022-12-24T02:13:06.359Z,56.00
2022-12-24T02:15:56.456Z,55.80
2022-12-24T02:18:43.305Z,54.30
2022-12-24T02:21:40.732Z,55.10
2022-12-24T02:24:11.610Z,54.50
2022-12-24T02:26:45.449Z,59.00
2022-12-24T02:29:47.626Z,60.00
2022-12-24T02:32:24.656Z,60.90
2022-12-24T02:35:11.055Z,59.60
2022-12-24T02:37:53.254Z,63.20
2022-12-24T02:40:30.364Z,59.00
2022-12-24T02:43:03.768Z,63.40
2022-12-24T02:45:34.860Z,65.20
2022-12-24T02:48:03.437Z,62.90
2022-12-24T02:50:31.624Z,64.10
2022-12-24T02:52:59.691Z,66.50
2022-12-24T02:55:48.488Z,65.90
2022-12-24T02:58:19.484Z,62.50
2022-12-24T03:01:18.087Z,61.20
2022-12-24T03:04:04.669Z,58.10
2022-12-24T03:06:38.726Z,61.20
2022-12-24T03:09:14.973Z,56.70
2022-12-24T03:11:50.808Z,56.00
2022-12-24T03:14:20.205Z,55.60
2022-12-24T03:16:49.742Z,56.20
2022-12-24T03:19:19.008Z,45.20
2022-12-24T03:21:49.992Z,64.50
2022-12-24T03:24:18.010Z,61.40
2022-12-24T03:26:47.371Z,54.30
2022-12-24T03:29:15.482Z,59.40
2022-12-24T03:31:47.219Z,66.30
2022-12-24T03:34:16.078Z,64.50
2022-12-24T03:36:44.871Z,60.30
2022-12-24T03:39:12.969Z,58.70
2022-12-24T03:41:40.901Z,57.80
2022-12-24T03:44:08.922Z,58.40
2022-12-24T03:46:37.031Z,60.70
2022-12-24T03:49:05.426Z,61.80
2022-12-24T03:51:33.573Z,57.00
2022-12-24T03:54:01.548Z,58.60
2022-12-24T03:56:29.799Z,59.20
2022-12-24T03:58:57.976Z,58.10
2022-12-24T04:01:26.279Z,59.50
2022-12-24T04:03:54.357Z,64.40
2022-12-24T04:06:22.732Z,64.20
2022-12-24T04:08:50.887Z,60.10
2022-12-24T04:11:19.070Z,57.70
2022-12-24T04:13:47.336Z,66.80
2022-12-24T04:16:17.839Z,66.60
2022-12-24T04:18:46.015Z,67.70
2022-12-24T04:21:14.184Z,66.50
2022-12-24T04:23:42.541Z,59.20
2022-12-24T04:26:12.912Z,65.10
2022-12-24T04:28:42.752Z,64.90
2022-12-24T04:31:14.426Z,62.30
2022-12-24T04:33:42.972Z,59.20
2022-12-24T04:36:14.688Z,58.90
2022-12-24T04:38:43.638Z,55.60
2022-12-24T04:41:23.143Z,53.30
2022-12-24T04:43:54.647Z,58.90
2022-12-24T04:46:25.706Z,57.80
2022-12-24T04:48:54.672Z,57.50
2022-12-24T04:51:24.500Z,54.50
2022-12-24T04:53:52.861Z,55.20
2022-12-24T04:56:24.323Z,53.50
2022-12-24T04:58:53.194Z,53.20
2022-12-24T05:01:27.895Z,53.10
2022-12-24T05:03:56.072Z,55.00
2022-12-24T05:06:27.850Z,52.40
2022-12-24T05:08:57.589Z,52.30
2022-12-24T05:11:26.282Z,56.60
2022-12-24T05:13:54.483Z,47.10
2022-12-24T05:16:24.250Z,58.50
2022-12-24T05:18:53.195Z,44.20
2022-12-24T05:21:23.438Z,47.90
2022-12-24T05:24:11.098Z,46.90
2022-12-24T05:26:58.768Z,50.80
2022-12-24T05:29:26.853Z,48.70
2022-12-24T05:31:55.072Z,47.00
2022-12-24T05:34:23.321Z,50.10
2022-12-24T05:36:51.239Z,47.60
2022-12-24T05:39:19.270Z,44.40
2022-12-24T05:41:47.763Z,47.60
2022-12-24T05:44:16.600Z,46.70
2022-12-24T05:46:45.019Z,45.20
2022-12-24T05:49:14.639Z,47.00
2022-12-24T05:51:43.344Z,45.30
2022-12-24T05:54:11.463Z,44.70
2022-12-24T05:56:39.616Z,45.50
2022-12-24T05:59:07.744Z,43.70
2022-12-24T06:01:35.885Z,42.90
2022-12-24T06:04:04.015Z,37.90
2022-12-24T06:06:32.199Z,39.70
2022-12-24T06:09:00.286Z,40.20
2022-12-24T06:11:28.759Z,40.80
2022-12-24T06:13:57.393Z,33.90
2022-12-24T06:16:26.343Z,37.70
2022-12-24T06:18:54.608Z,38.20
2022-12-24T06:21:22.957Z,42.20
2022-12-24T06:23:51.273Z,40.00
2022-12-24T06:26:22.161Z,43.50
2022-12-24T06:28:52.286Z,42.90
2022-12-24T06:31:22.959Z,42.80
2022-12-24T06:33:52.403Z,39.00
2022-12-24T06:36:23.866Z,36.10
2022-12-24T06:38:53.493Z,44.10
2022-12-24T06:41:22.292Z,45.40
2022-12-24T06:43:52.580Z,44.90
2022-12-24T06:46:22.231Z,44.70
2022-12-24T06:48:51.102Z,44.70
2022-12-24T06:51:20.234Z,41.00
2022-12-24T06:53:52.993Z,41.90
2022-12-24T06:56:21.893Z,39.90
2022-12-24T06:58:50.487Z,38.50
2022-12-24T07:01:20.213Z,35.50
2022-12-24T07:03:48.815Z,35.90
2022-12-24T07:06:29.424Z,36.60
2022-12-24T07:08:57.600Z,32.80
2022-12-24T07:11:26.518Z,33.80
2022-12-24T07:13:54.875Z,33.90
2022-12-24T07:16:23.169Z,32.10
2022-12-24T07:18:51.423Z,35.60
2022-12-24T07:21:19.296Z,36.40
2022-12-24T07:23:47.874Z,37.20
2022-12-24T07:26:15.907Z,33.80
2022-12-24T07:28:43.854Z,35.50
2022-12-24T07:31:12.125Z,33.60
2022-12-24T07:33:40.278Z,34.20
2022-12-24T07:36:14.768Z,35.70
2022-12-24T07:38:42.893Z,37.30
2022-12-24T07:41:11.131Z,38.80
2022-12-24T07:43:39.839Z,39.00
2022-12-24T07:46:08.712Z,40.80
2022-12-24T07:48:37.187Z,38.90
2022-12-24T07:51:05.817Z,37.20
2022-12-24T07:53:34.032Z,38.80
2022-12-24T07:56:05.216Z,40.00
2022-12-24T07:58:36.999Z,35.10
2022-12-24T08:01:05.268Z,36.60
2022-12-24T08:03:33.487Z,36.70
2022-12-24T08:06:01.713Z,34.70
2022-12-24T08:08:30.032Z,34.20
2022-12-24T08:11:03.256Z,35.80
2022-12-24T08:13:31.973Z,34.60
2022-12-24T08:16:00.246Z,35.40
2022-12-24T08:18:28.980Z,35.50
2022-12-24T08:20:57.116Z,34.40
2022-12-24T08:23:25.421Z,34.90
2022-12-24T08:25:53.722Z,36.40
2022-12-24T08:28:22.092Z,35.50
2022-12-24T08:30:52.117Z,36.40
2022-12-24T08:33:20.811Z,37.60
2022-12-24T08:35:50.852Z,39.70
2022-12-24T08:38:20.029Z,40.30
2022-12-24T08:40:50.270Z,39.60
2022-12-24T08:43:19.610Z,42.30
2022-12-24T08:45:49.754Z,40.70
2022-12-24T08:48:18.373Z,42.30
2022-12-24T08:50:46.714Z,39.90
2022-12-24T08:53:15.327Z,42.70
2022-12-24T08:55:43.501Z,41.90
2022-12-24T08:58:11.755Z,39.40
2022-12-24T09:00:40.167Z,39.60
2022-12-24T09:03:08.202Z,38.80
2022-12-24T09:05:40.356Z,37.40
2022-12-24T09:08:08.530Z,39.50
2022-12-24T09:10:36.682Z,37.20
2022-12-24T09:13:05.401Z,36.60
2022-12-24T09:15:33.653Z,37.60
2022-12-24T09:18:02.347Z,38.40
2022-12-24T09:20:30.748Z,35.20
2022-12-24T09:22:59.052Z,37.00
2022-12-24T09:25:27.341Z,36.60
2022-12-24T09:27:55.604Z,38.00
2022-12-24T09:30:23.657Z,38.90
2022-12-24T09:32:52.239Z,38.70
2022-12-24T09:35:20.423Z,38.90
2022-12-24T09:37:48.543Z,41.10
2022-12-24T09:40:29.381Z,43.20
2022-12-24T09:42:57.430Z,44.80
2022-12-24T09:45:33.756Z,45.90
2022-12-24T09:48:11.964Z,45.90
2022-12-24T09:50:46.678Z,42.90
2022-12-24T09:53:40.961Z,43.90
2022-12-24T09:56:44.361Z,44.40
2022-12-24T09:59:22.836Z,41.70
2022-12-24T10:01:54.647Z,44.80
2022-12-24T10:04:30.851Z,42.80
2022-12-24T10:07:08.560Z,39.00
2022-12-24T10:10:13.683Z,45.20
2022-12-24T10:13:11.830Z,44.50
2022-12-24T10:15:46.565Z,44.10
2022-12-24T10:18:26.356Z,44.70
2022-12-24T10:20:59.703Z,46.60
2022-12-24T10:24:01.048Z,45.80
2022-12-24T10:27:14.993Z,47.10
2022-12-24T10:29:50.121Z,40.30
2022-12-24T10:32:25.709Z,45.50
2022-12-24T10:35:06.595Z,44.20
2022-12-24T10:37:34.927Z,45.70
2022-12-24T10:40:03.776Z,39.80
2022-12-24T10:42:50.275Z,39.40
2022-12-24T10:45:23.228Z,38.30
2022-12-24T10:47:56.263Z,41.70
2022-12-24T10:50:41.388Z,42.30
2022-12-24T10:53:42.239Z,43.10
2022-12-24T10:56:17.013Z,44.70
2022-12-24T10:58:51.389Z,45.50
2022-12-24T11:01:21.363Z,44.20
2022-12-24T11:04:02.548Z,45.30
2022-12-24T11:06:31.355Z,43.50
2022-12-24T11:09:21.769Z,42.10
2022-12-24T11:11:50.599Z,40.60
2022-12-24T11:14:21.086Z,39.10
2022-12-24T11:16:55.114Z,38.40
2022-12-24T11:19:41.635Z,34.40
2022-12-24T11:22:24.129Z,37.70
2022-12-24T11:25:02.724Z,41.00
2022-12-24T11:27:47.477Z,43.50
2022-12-24T11:30:16.809Z,41.30
2022-12-24T11:32:47.972Z,45.30
2022-12-24T11:35:17.513Z,43.00
2022-12-24T11:37:45.589Z,46.60
2022-12-24T11:40:23.255Z,43.60
2022-12-24T11:42:53.984Z,45.70
2022-12-24T11:45:26.548Z,47.60
2022-12-24T11:47:56.172Z,47.10
2022-12-24T11:50:27.417Z,45.80
2022-12-24T11:53:03.940Z,43.20
2022-12-24T11:55:53.138Z,37.60
2022-12-24T11:58:56.832Z,41.40
2022-12-24T12:01:40.745Z,36.80
2022-12-24T12:04:23.052Z,41.40
2022-12-24T12:07:00.536Z,37.50
2022-12-24T12:09:38.171Z,43.00
2022-12-24T12:12:12.988Z,42.10
2022-12-24T12:14:48.380Z,42.80
2022-12-24T12:17:35.964Z,41.00
2022-12-24T12:20:17.075Z,39.80
2022-12-24T12:22:56.244Z,40.80
2022-12-24T12:25:33.455Z,37.90
2022-12-24T12:28:07.419Z,37.30
2022-12-24T12:30:38.484Z,38.10
2022-12-24T12:33:18.775Z,42.90
2022-12-24T12:35:49.326Z,42.30
2022-12-24T12:38:27.152Z,46.60
2022-12-24T12:41:16.889Z,47.70
2022-12-24T12:44:22.789Z,46.70
2022-12-24T12:47:03.071Z,45.00
2022-12-24T12:50:00.491Z,45.80
2022-12-24T12:52:47.133Z,38.40
2022-12-24T12:55:25.181Z,44.20
2022-12-24T12:57:58.927Z,46.50
2022-12-24T13:00:29.842Z,45.20
2022-12-24T13:03:19.897Z,42.90
2022-12-24T13:06:00.291Z,46.40
2022-12-24T13:08:38.408Z,44.30
2022-12-24T13:11:29.300Z,40.70
2022-12-24T13:14:38.914Z,47.70
2022-12-24T13:17:18.859Z,50.50
2022-12-24T13:20:27.318Z,51.10
2022-12-24T13:23:12.086Z,50.40
2022-12-24T13:25:43.116Z,54.20
2022-12-24T13:28:18.660Z,53.90
2022-12-24T13:30:49.186Z,52.80
2022-12-24T13:33:35.889Z,51.00
2022-12-24T13:36:06.700Z,48.50
2022-12-24T13:38:48.937Z,48.40
2022-12-24T13:41:40.022Z,40.80
2022-12-24T13:44:15.066Z,38.40
2022-12-24T13:46:47.320Z,41.40
2022-12-24T13:49:25.941Z,34.50
2022-12-24T13:52:11.279Z,41.20
2022-12-24T13:54:43.110Z,38.10
2022-12-24T13:57:29.468Z,40.00
2022-12-24T14:00:09.049Z,38.80
2022-12-24T14:02:49.782Z,37.60
2022-12-24T14:05:29.263Z,37.80
2022-12-24T14:07:59.790Z,38.40
2022-12-24T14:10:58.863Z,38.10
2022-12-24T14:13:39.467Z,39.20
2022-12-24T14:16:20.811Z,42.50
2022-12-24T14:19:18.674Z,42.70
2022-12-24T14:21:56.416Z,44.80
2022-12-24T14:24:35.194Z,45.60
2022-12-24T14:27:39.025Z,42.70
2022-12-24T14:30:20.617Z,38.50
2022-12-24T14:32:51.008Z,41.10
2022-12-24T14:35:26.595Z,40.20
2022-12-24T14:38:05.651Z,39.80
2022-12-24T14:40:43.714Z,41.20
2022-12-24T14:43:32.449Z,40.30
2022-12-24T14:46:32.083Z,42.50
2022-12-24T14:49:27.794Z,35.90
2022-12-24T14:52:45.929Z,35.60
2022-12-24T14:55:29.675Z,36.30
2022-12-24T14:58:25.876Z,32.60
2022-12-24T15:00:57.617Z,38.70
2022-12-24T15:03:29.060Z,40.90
2022-12-24T15:06:05.171Z,40.30
2022-12-24T15:08:45.755Z,41.60
2022-12-24T15:11:23.504Z,45.30
2022-12-24T15:13:58.658Z,44.90
2022-12-24T15:19:21.507Z,45.60
2022-12-24T15:21:50.573Z,46.40
2022-12-24T15:24:34.457Z,47.80
2022-12-24T15:27:16.897Z,48.00
2022-12-24T15:29:47.160Z,51.80
2022-12-24T15:32:18.095Z,54.00
2022-12-24T15:34:49.218Z,56.30
2022-12-24T15:37:29.990Z,57.70
2022-12-24T15:40:11.577Z,61.00
2022-12-24T15:42:44.364Z,56.10
2022-12-24T15:45:27.227Z,53.00
2022-12-24T15:48:10.036Z,46.30
2022-12-24T15:50:44.792Z,55.30
2022-12-24T15:53:22.909Z,54.20
2022-12-24T15:56:02.876Z,50.10
2022-12-24T15:58:35.118Z,51.80
2022-12-24T16:01:09.866Z,50.30
2022-12-24T16:03:54.336Z,48.40
2022-12-24T16:06:23.856Z,48.90
2022-12-24T16:08:52.920Z,49.20
2022-12-24T16:11:23.803Z,48.80
2022-12-24T16:14:14.527Z,47.80
2022-12-24T16:16:48.290Z,47.20
2022-12-24T16:19:22.867Z,49.10
2022-12-24T16:21:57.420Z,53.20
2022-12-24T16:24:31.057Z,52.10
2022-12-24T16:26:58.975Z,47.20
2022-12-24T16:29:27.885Z,54.60
2022-12-24T16:31:58.255Z,59.70
2022-12-24T16:34:29.135Z,54.70
2022-12-24T16:36:58.580Z,54.50
2022-12-24T16:39:32.352Z,54.90
2022-12-24T16:42:21.942Z,53.40
2022-12-24T16:44:53.098Z,53.00
2022-12-24T16:47:35.721Z,45.30
2022-12-24T16:50:08.437Z,48.60
2022-12-24T16:52:36.488Z,48.60
2022-12-24T16:55:04.934Z,48.80
2022-12-24T16:57:34.350Z,47.60
2022-12-24T17:00:04.937Z,49.20
2022-12-24T17:02:33.328Z,51.00
2022-12-24T17:05:01.576Z,46.70
2022-12-24T17:07:29.693Z,57.30
2022-12-24T17:09:57.811Z,66.60
2022-12-24T17:12:26.028Z,66.60
2022-12-24T17:14:54.159Z,63.70
2022-12-24T17:17:28.792Z,63.20
2022-12-24T17:19:57.702Z,69.60
2022-12-24T17:22:27.912Z,66.30
2022-12-24T17:24:56.263Z,62.70
2022-12-24T17:27:24.727Z,66.00
2022-12-24T17:29:53.027Z,69.50
2022-12-24T17:32:21.056Z,65.40
2022-12-24T17:34:49.101Z,60.20
2022-12-24T17:37:17.148Z,62.70
2022-12-24T17:39:45.430Z,57.20
2022-12-24T17:42:13.520Z,55.30
2022-12-24T17:44:41.684Z,54.20
2022-12-24T17:47:10.021Z,55.50
2022-12-24T17:49:38.039Z,55.10
2022-12-24T17:52:06.428Z,56.90
2022-12-24T17:54:34.758Z,54.90
2022-12-24T17:57:03.032Z,56.50
2022-12-24T17:59:31.789Z,58.70
2022-12-24T18:02:00.474Z,59.90
2022-12-24T18:04:28.835Z,62.30
2022-12-24T18:07:02.035Z,59.80
2022-12-24T18:09:31.158Z,60.50
2022-12-24T18:11:59.340Z,64.70
2022-12-24T18:14:27.910Z,59.40
2022-12-24T18:16:56.294Z,57.10
2022-12-24T18:19:24.550Z,58.10
2022-12-24T18:21:52.662Z,55.70
2022-12-24T18:24:20.965Z,56.20
2022-12-24T18:26:49.606Z,52.90
2022-12-24T18:29:18.186Z,54.90
2022-12-24T18:31:46.613Z,46.70
2022-12-24T18:34:15.254Z,55.30
2022-12-24T18:36:43.224Z,53.70
2022-12-24T18:39:11.469Z,52.10
2022-12-24T18:41:39.633Z,52.40
2022-12-24T18:44:09.821Z,53.50
2022-12-24T18:46:37.837Z,53.40
2022-12-24T18:49:05.892Z,53.20
2022-12-24T18:51:35.588Z,48.60
2022-12-24T18:54:05.368Z,50.90
2022-12-24T18:56:33.499Z,53.10
2022-12-24T18:59:02.971Z,48.80
2022-12-24T19:01:33.622Z,53.50
2022-12-24T19:04:02.699Z,37.30
2022-12-24T19:06:30.693Z,40.30
2022-12-24T19:09:00.895Z,41.90
2022-12-24T19:11:32.273Z,39.60
2022-12-24T19:14:01.919Z,39.90
2022-12-24T19:16:33.420Z,34.60
2022-12-24T19:19:03.070Z,32.80
2022-12-24T19:21:32.030Z,35.20
2022-12-24T19:24:00.554Z,31.20
2022-12-24T19:26:28.813Z,29.40
2022-12-24T19:28:56.970Z,30.30
2022-12-24T19:31:26.285Z,29.60
2022-12-24T19:33:56.460Z,31.40
2022-12-24T19:36:27.732Z,28.30
2022-12-24T19:38:56.894Z,27.80
2022-12-24T19:41:28.008Z,23.00
2022-12-24T19:43:59.673Z,23.70
2022-12-24T19:46:32.811Z,22.50
2022-12-24T19:49:07.899Z,20.00
2022-12-24T19:51:36.749Z,14.50
2022-12-24T19:54:06.518Z,11.90
2022-12-24T19:56:35.823Z,10.40
2022-12-24T19:59:04.420Z,9.30
2022-12-24T20:01:35.298Z,8.20
2022-12-24T20:04:03.850Z,7.30
2022-12-24T20:06:35.373Z,6.80
2022-12-24T20:09:07.141Z,6.10
2022-12-24T20:11:36.264Z,6.70
2022-12-24T20:14:05.866Z,6.90
2022-12-24T20:16:34.528Z,6.70
2022-12-24T20:19:05.195Z,6.90
2022-12-24T20:21:34.480Z,6.40
2022-12-24T20:24:02.936Z,6.50
2022-12-24T20:26:31.387Z,5.40
2022-12-24T20:29:04.671Z,6.50
2022-12-24T20:31:33.880Z,5.80
2022-12-24T20:34:04.088Z,6.70
2022-12-24T20:36:32.182Z,7.20
2022-12-24T20:39:00.480Z,7.10
2022-12-24T20:41:30.211Z,6.40
2022-12-24T20:44:00.431Z,6.60
2022-12-24T20:46:31.462Z,6.70
2022-12-24T20:49:00.119Z,6.20
2022-12-24T20:51:29.200Z,6.90
2022-12-24T20:54:00.938Z,8.90
2022-12-24T20:56:31.123Z,8.50
2022-12-24T20:59:01.506Z,8.90
2022-12-24T21:01:30.609Z,8.30
2022-12-24T21:04:05.091Z,7.80
2022-12-24T21:06:34.818Z,6.20
2022-12-24T21:09:04.174Z,6.40
2022-12-24T21:11:51.762Z,7.40
2022-12-24T21:14:23.703Z,7.00
2022-12-24T21:16:53.475Z,7.40
2022-12-24T21:19:25.018Z,7.50
2022-12-24T21:21:55.199Z,7.30
2022-12-24T21:24:24.935Z,7.60
2022-12-24T21:26:53.548Z,7.30
2022-12-24T21:29:21.756Z,7.10
2022-12-24T21:31:50.098Z,7.60
2022-12-24T21:34:18.281Z,7.60
2022-12-24T21:36:46.889Z,6.90
2022-12-24T21:39:15.342Z,6.20
2022-12-24T21:41:43.600Z,6.40
2022-12-24T21:44:11.657Z,6.60
2022-12-24T21:46:39.826Z,5.80
2022-12-24T21:49:28.954Z,6.30
2022-12-24T21:51:59.003Z,6.00
2022-12-24T21:54:28.665Z,5.90
2022-12-24T21:57:18.513Z,5.90
2022-12-24T21:59:49.165Z,7.10
2022-12-24T22:02:19.014Z,6.30
2022-12-24T22:04:47.256Z,6.40
2022-12-24T22:07:45.174Z,6.90
2022-12-24T22:10:32.992Z,7.10
2022-12-24T22:13:06.322Z,7.10
2022-12-24T22:15:35.965Z,7.20
2022-12-24T22:18:04.155Z,6.50
2022-12-24T22:20:32.158Z,6.70
2022-12-24T22:23:00.238Z,6.90
2022-12-24T22:25:32.058Z,6.50
2022-12-24T22:28:00.210Z,7.10
2022-12-24T22:30:28.699Z,6.70
2022-12-24T22:32:57.820Z,6.40
2022-12-24T22:35:26.529Z,6.50
2022-12-24T22:37:59.665Z,6.30
2022-12-24T22:40:28.870Z,6.80
2022-12-24T22:42:56.896Z,7.50
2022-12-24T22:45:24.960Z,6.60
2022-12-24T22:47:53.422Z,7.20
2022-12-24T22:50:22.574Z,7.00
2022-12-24T22:52:50.518Z,7.10
2022-12-24T22:55:18.618Z,7.20
2022-12-24T22:57:46.735Z,6.10
2022-12-24T23:00:39.532Z,6.20
2022-12-24T23:03:08.598Z,6.20
2022-12-24T23:05:37.655Z,5.80
2022-12-24T23:08:07.075Z,6.30
2022-12-24T23:10:36.378Z,6.40
2022-12-24T23:13:22.999Z,6.50
2022-12-24T23:15:51.528Z,7.10
2022-12-24T23:18:19.752Z,7.20
2022-12-24T23:20:48.345Z,7.40
2022-12-24T23:23:16.476Z,6.70
2022-12-24T23:25:44.671Z,6.10
2022-12-24T23:28:13.073Z,6.40
2022-12-24T23:30:41.488Z,6.80
2022-12-24T23:33:09.843Z,7.00
2022-12-24T23:35:38.103Z,7.00
2022-12-24T23:38:06.279Z,7.00
2022-12-24T23:40:34.522Z,7.10
2022-12-24T23:43:02.613Z,7.50
2022-12-24T23:45:30.724Z,7.30
2022-12-24T23:47:58.902Z,8.40
2022-12-24T23:50:27.595Z,8.10
2022-12-24T23:52:55.591Z,8.00
2022-12-24T23:55:23.800Z,7.20
2022-12-24T23:57:52.316Z,7.40
